Time;durP1;ratioP1;P1;durP2;ratioP2;P2;SDS_P1;SDS_P2;PMS_P1;PMS_P2;Temp;Humidity;BMP_temperature;BMP_pressure;BME280_temperature;BME280_humidity;BME280_pressure;Samples;Min_cycle;Max_cycle;Signal;HPM_P1;HPM_P2
2021/07/12 00:02:05;;;;;;;357.77;84.53;;;;;;;;;;5056206;28;20421;-76
2021/07/12 00:04:31;;;;;;;334.90;85.20;;;;;;;;;;5063502;28;20755;-75
2021/07/12 00:06:57;;;;;;;353.23;88.53;;;;;;;;;;5073399;28;20504;-76
2021/07/12 00:09:27;;;;;;;402.10;97.53;;;;;;;;;;5064619;28;20874;-75
2021/07/12 00:11:53;;;;;;;376.73;88.37;;;;;;;;;;5066897;28;20859;-75
2021/07/12 00:14:19;;;;;;;410.23;93.87;;;;;;;;;;5054912;28;20410;-76
2021/07/12 00:16:45;;;;;;;406.43;93.37;;;;;;;;;;5073976;28;20389;-75
2021/07/12 00:19:11;;;;;;;398.50;94.57;;;;;;;;;;5072032;28;20417;-74
2021/07/12 00:21:37;;;;;;;435.87;97.63;;;;;;;;;;5073314;28;20470;-75
2021/07/12 00:24:04;;;;;;;401.03;93.70;;;;;;;;;;5062365;28;20901;-75
2021/07/12 00:26:30;;;;;;;412.63;97.03;;;;;;;;;;5053843;28;20960;-74
2021/07/12 00:28:56;;;;;;;468.23;106.07;;;;;;;;;;5065953;28;20887;-74
2021/07/12 00:31:22;;;;;;;453.23;103.07;;;;;;;;;;5052758;28;20414;-74
2021/07/12 00:33:48;;;;;;;489.03;106.37;;;;;;;;;;5054112;28;20453;-75
2021/07/12 00:36:14;;;;;;;431.97;100.50;;;;;;;;;;5067276;28;20500;-76
2021/07/12 00:38:40;;;;;;;395.60;92.20;;;;;;;;;;5072079;28;20406;-75
2021/07/12 00:41:06;;;;;;;426.13;97.20;;;;;;;;;;5071997;28;20424;-76
2021/07/12 00:43:35;;;;;;;407.73;93.47;;;;;;;;;;5066688;28;20421;-76
2021/07/12 00:46:01;;;;;;;421.47;98.47;;;;;;;;;;5053426;28;20418;-75
2021/07/12 00:48:28;;;;;;;392.87;93.60;;;;;;;;;;5053639;28;20924;-76
2021/07/12 00:50:55;;;;;;;440.50;101.07;;;15.50;1.00;;;;;;5070559;28;20539;-76
2021/07/12 00:53:21;;;;;;;420.80;97.07;;;;;;;;;;5067463;28;20824;-76
2021/07/12 00:55:49;;;;;;;409.07;94.87;;;;;;;;;;5068722;28;20418;-75
2021/07/12 00:58:27;;;;;;;405.53;96.17;;;;;;;;;;5073140;28;20382;-76
2021/07/12 01:00:55;;;;;;;412.40;92.90;;;;;;;;;;5070814;28;20772;-76
2021/07/12 01:03:22;;;;;;;486.80;108.50;;;15.50;1.00;;;;;;5069728;28;20853;-75
2021/07/12 01:05:48;;;;;;;449.80;100.90;;;;;;;;;;5070637;28;20509;-75
2021/07/12 01:08:14;;;;;;;468.37;104.50;;;;;;;;;;5072332;28;20429;-75
2021/07/12 01:10:53;;;;;;;444.80;100.80;;;15.40;1.00;;;;;;5070973;28;20651;-75
2021/07/12 01:13:35;;;;;;;493.03;106.77;;;;;;;;;;5069069;28;20553;-76
2021/07/12 01:16:04;;;;;;;509.83;111.20;;;;;;;;;;5052537;28;20414;-76
2021/07/12 01:18:32;;;;;;;473.00;102.60;;;;;;;;;;5053283;28;20391;-75
2021/07/12 01:21:09;;;;;;;421.73;95.70;;;15.40;1.00;;;;;;5053286;28;20422;-75
2021/07/12 01:23:35;;;;;;;468.87;101.60;;;;;;;;;;5053183;28;20548;-75
2021/07/12 01:26:10;;;;;;;473.40;107.00;;;;;;;;;;5059204;28;20429;-75
2021/07/12 01:28:58;;;;;;;397.17;92.27;;;;;;;;;;5072679;28;20409;-75
2021/07/12 01:31:42;;;;;;;502.47;108.40;;;15.30;1.00;;;;;;5072090;28;20748;-75
2021/07/12 01:34:26;;;;;;;489.60;107.53;;;15.30;1.00;;;;;;5063070;28;20509;-75
2021/07/12 01:37:01;;;;;;;395.23;89.57;;;15.30;1.00;;;;;;5052279;28;20455;-75
2021/07/12 01:39:34;;;;;;;416.00;95.87;;;;;;;;;;5052703;28;20399;-75
2021/07/12 01:42:12;;;;;;;410.10;95.30;;;15.30;1.00;;;;;;5064263;28;20880;-75
2021/07/12 01:44:54;;;;;;;393.30;91.20;;;;;;;;;;5063611;28;20442;-75
2021/07/12 01:47:45;;;;;;;394.27;90.20;;;15.20;1.00;;;;;;5056898;28;20391;-75
2021/07/12 01:50:30;;;;;;;373.17;88.27;;;;;;;;;;5057048;28;20402;-75
2021/07/12 01:53:02;;;;;;;363.20;88.53;;;15.30;1.00;;;;;;5055152;28;20773;-75
2021/07/12 01:55:51;;;;;;;386.67;90.83;;;15.20;1.00;;;;;;5058837;28;20501;-75
2021/07/12 01:58:17;;;;;;;376.23;87.77;;;;;;;;;;5074938;28;20419;-74
2021/07/12 02:00:44;;;;;;;354.83;84.80;;;;;;;;;;5074794;28;20967;-75
2021/07/12 02:03:11;;;;;;;368.30;89.70;;;;;;;;;;5074117;28;20488;-75
2021/07/12 02:05:39;;;;;;;334.63;84.10;;;15.20;1.00;;;;;;5057005;28;20410;-75
2021/07/12 02:08:08;;;;;;;363.53;90.37;;;15.00;1.00;;;;;;5055927;28;20429;-75
2021/07/12 02:10:35;;;;;;;369.10;88.73;;;;;;;;;;5059540;28;20900;-75
2021/07/12 02:13:01;;;;;;;366.03;86.73;;;;;;;;;;5055797;28;20492;-75
2021/07/12 02:15:27;;;;;;;365.17;90.33;;;;;;;;;;5056383;28;20409;-75
2021/07/12 02:17:54;;;;;;;365.20;86.20;;;;;;;;;;5075903;28;20409;-75
2021/07/12 02:20:24;;;;;;;332.83;85.40;;;;;;;;;;5076630;28;20389;-75
2021/07/12 02:22:51;;;;;;;347.00;83.40;;;;;;;;;;5075922;28;20899;-75
2021/07/12 02:25:18;;;;;;;371.03;90.93;;;;;;;;;;5065454;28;20413;-74
2021/07/12 02:27:45;;;;;;;344.83;83.77;;;;;;;;;;5058565;28;20440;-75
2021/07/12 02:33:12;;;;;;;246.47;72.43;;;15.10;1.00;;;;;;5085674;28;20595;-73
2021/07/12 02:35:39;;;;;;;238.20;71.33;;;;;;;;;;5069313;28;20920;-73
2021/07/12 02:38:07;;;;;;;241.77;71.93;;;15.10;1.00;;;;;;5064222;28;20409;-73
2021/07/12 02:40:33;;;;;;;217.47;70.17;;;;;;;;;;5059298;28;20418;-74
2021/07/12 02:43:01;;;;;;;225.27;70.77;;;15.10;1.00;;;;;;5069309;28;20433;-73
2021/07/12 02:45:29;;;;;;;213.43;67.67;;;;;;;;;;5052427;28;20919;-73
2021/07/12 02:47:56;;;;;;;200.60;65.30;;;;;;;;;;5049849;28;20717;-73
2021/07/12 02:50:22;;;;;;;227.57;70.77;;;;;;;;;;5050466;28;20405;-72
2021/07/12 02:52:48;;;;;;;236.03;72.90;;;;;;;;;;5062301;28;20997;-72
2021/07/12 02:55:14;;;;;;;234.33;74.67;;;;;;;;;;5068808;28;20409;-73
2021/07/12 02:57:41;;;;;;;222.17;69.43;;;15.00;1.00;;;;;;5070039;28;20396;-72
2021/07/12 03:00:09;;;;;;;212.43;68.73;;;;;;;;;;5069766;28;20410;-73
2021/07/12 03:02:35;;;;;;;205.37;65.70;;;;;;;;;;5068657;28;20766;-73
2021/07/12 03:05:01;;;;;;;253.97;73.70;;;;;;;;;;5066131;28;20419;-73
2021/07/12 03:07:29;;;;;;;263.20;74.90;;;;;;;;;;5062842;28;20487;-73
2021/07/12 03:10:00;;;;;;;254.60;73.40;;;15.00;1.00;;;;;;5069449;28;20880;-74
2021/07/12 03:12:43;;;;;;;257.83;75.33;;;15.00;1.00;;;;;;5068844;28;20544;-73
2021/07/12 03:15:11;;;;;;;231.70;71.17;;;14.90;1.00;;;;;;5068000;28;20556;-73
2021/07/12 03:17:50;;;;;;;281.50;76.20;;;;;;;;;;5067971;28;20441;-73
2021/07/12 03:20:17;;;;;;;295.83;79.53;;;14.90;1.00;;;;;;5065077;28;20414;-73
2021/07/12 03:22:51;;;;;;;277.57;76.27;;;14.90;1.00;;;;;;5052161;28;20492;-74
2021/07/12 03:25:25;;;;;;;284.10;75.73;;;14.90;1.00;;;;;;5055138;28;20812;-73
2021/07/12 03:27:57;;;;;;;288.67;75.50;;;14.90;1.00;;;;;;5049099;28;20409;-74
2021/07/12 03:30:24;;;;;;;229.87;69.87;;;;;;;;;;5060055;28;20422;-74
2021/07/12 03:32:51;;;;;;;243.40;72.87;;;14.90;1.00;;;;;;5066107;28;20484;-73
2021/07/12 03:35:18;;;;;;;253.43;74.87;;;14.90;1.00;;;;;;5049888;28;20421;-73
2021/07/12 03:37:44;;;;;;;245.87;70.43;;;;;;;;;;5048715;28;20409;-73
2021/07/12 03:40:10;;;;;;;245.77;72.27;;;;;;;;;;5063466;28;20406;-73
2021/07/12 03:42:37;;;;;;;243.57;71.83;;;14.90;1.00;;;;;;5064757;28;20741;-73
2021/07/12 03:45:05;;;;;;;219.63;70.77;;;;;;;;;;5055216;28;20406;-73
2021/07/12 03:47:33;;;;;;;188.17;64.63;;;15.00;1.00;;;;;;5055436;28;20729;-73
2021/07/12 03:50:10;;;;;;;185.27;65.50;;;15.00;1.00;;;;;;5055814;28;20450;-73
2021/07/12 03:52:40;;;;;;;203.53;65.87;;;;;;;;;;5043622;28;20875;-73
2021/07/12 03:55:06;;;;;;;198.20;67.83;;;;;;;;;;5055056;28;20410;-73
2021/07/12 03:57:32;;;;;;;217.23;67.97;;;;;;;;;;5055436;28;20394;-73
2021/07/12 03:59:58;;;;;;;195.77;66.27;;;;;;;;;;5040945;28;20386;-72
2021/07/12 04:02:24;;;;;;;199.03;66.57;;;;;;;;;;5065111;28;20943;-73
2021/07/12 04:04:50;;;;;;;199.37;66.53;;;;;;;;;;5055330;28;20402;-73
2021/07/12 04:07:16;;;;;;;222.37;70.60;;;;;;;;;;5053620;28;20856;-73
2021/07/12 04:09:42;;;;;;;231.30;70.17;;;;;;;;;;5054674;28;20418;-73
2021/07/12 04:12:09;;;;;;;242.27;72.67;;;;;;;;;;5054797;28;20439;-73
2021/07/12 04:14:35;;;;;;;238.37;71.03;;;;;;;;;;5053765;28;20788;-73
2021/07/12 04:17:01;;;;;;;241.87;71.37;;;;;;;;;;5053488;28;20418;-75
2021/07/12 04:19:27;;;;;;;230.90;69.93;;;;;;;;;;5055117;28;20393;-79
2021/07/12 04:21:53;;;;;;;236.17;73.03;;;;;;;;;;5055406;28;20391;-73
2021/07/12 04:24:33;;;;;;;244.80;70.17;;;;;;;;;;5052591;28;21055;-78
2021/07/12 04:26:59;;;;;;;268.00;78.43;;;;;;;;;;5052698;28;20922;-73
2021/07/12 04:29:25;;;;;;;232.20;71.40;;;;;;;;;;5034604;28;20392;-74
2021/07/12 04:31:51;;;;;;;208.50;67.67;;;;;;;;;;5034977;28;20474;-73
2021/07/12 04:34:17;;;;;;;199.10;67.03;;;;;;;;;;5040867;28;20489;-72
2021/07/12 04:36:44;;;;;;;237.27;73.70;;;;;;;;;;5054023;28;20422;-72
2021/07/12 04:39:10;;;;;;;239.67;72.37;;;;;;;;;;5053197;28;20410;-73
2021/07/12 04:41:36;;;;;;;250.03;74.30;;;;;;;;;;5050064;28;20421;-72
2021/07/12 04:44:02;;;;;;;264.97;75.30;;;;;;;;;;5053344;28;20885;-74
2021/07/12 04:46:28;;;;;;;269.93;73.50;;;;;;;;;;5054601;28;20452;-73
2021/07/12 04:48:57;;;;;;;278.17;77.57;;;;;;;;;;5052375;28;20768;-73
2021/07/12 04:51:27;;;;;;;273.93;76.53;;;;;;;;;;5035173;28;20450;-75
2021/07/12 04:54:09;;;;;;;264.60;76.33;;;;;;;;;;5045698;28;20415;-75
2021/07/12 04:56:39;;;;;;;243.97;71.57;;;;;;;;;;5054104;28;20394;-76
2021/07/12 04:59:07;;;;;;;278.07;79.47;;;;;;;;;;5054668;28;20402;-76
2021/07/12 05:01:41;;;;;;;295.70;79.60;;;;;;;;;;5053866;28;20418;-75
2021/07/12 05:04:07;;;;;;;295.73;80.10;;;;;;;;;;5043599;28;20831;-76
2021/07/12 05:06:34;;;;;;;293.23;79.37;;;;;;;;;;5053103;28;20792;-75
2021/07/12 05:09:03;;;;;;;293.97;82.83;;;;;;;;;;5054014;28;20759;-75
2021/07/12 05:11:39;;;;;;;303.13;80.50;;;;;;;;;;5049758;28;20925;-75
2021/07/12 05:14:06;;;;;;;290.10;79.30;;;16.80;1.00;;;;;;5034699;28;20411;-76
2021/07/12 05:16:33;;;;;;;306.37;82.80;;;16.80;1.00;;;;;;5034040;28;20752;-76
2021/07/12 05:18:59;;;;;;;321.37;82.20;;;;;;;;;;5033156;28;20427;-76
2021/07/12 05:21:33;;;;;;;343.77;86.80;;;;;;;;;;5040719;28;20418;-75
2021/07/12 05:23:59;;;;;;;347.67;89.47;;;;;;;;;;5045815;28;20445;-75
2021/07/12 05:26:27;;;;;;;340.77;87.60;;;;;;;;;;5053587;28;20933;-75
2021/07/12 05:29:09;;;;;;;331.63;86.10;;;;;;;;;;5052537;28;20419;-75
2021/07/12 05:31:35;;;;;;;345.97;86.47;;;;;;;;;;5054083;28;20553;-75
2021/07/12 05:34:16;;;;;;;333.03;85.70;;;;;;;;;;5046802;28;20503;-75
2021/07/12 05:36:57;;;;;;;336.70;85.80;;;;;;;;;;5034616;28;20401;-75
2021/07/12 05:39:50;;;;;;;386.70;90.47;;;17.30;99.90;;;;;;5041876;28;20846;-76
2021/07/12 05:42:23;;;;;;;364.00;87.90;;;;;;;;;;5052650;28;20422;-76
2021/07/12 05:44:49;;;;;;;359.00;89.87;;;;;;;;;;5035960;28;20427;-76
2021/07/12 05:47:15;;;;;;;344.47;86.17;;;;;;;;;;5069785;28;20423;-76
2021/07/12 05:49:45;;;;;;;359.90;88.53;;;;;;;;;;5073568;28;20386;-76
2021/07/12 05:52:11;;;;;;;454.93;108.97;;;;;;;;;;5049035;28;21150;-76
2021/07/12 05:54:37;;;;;;;398.27;96.33;;;;;;;;;;5043342;28;20421;-76
2021/07/12 05:57:03;;;;;;;407.43;97.57;;;;;;;;;;5051751;28;20419;-75
2021/07/12 05:59:39;;;;;;;394.47;94.67;;;;;;;;;;5035284;28;20423;-76
2021/07/12 06:02:05;;;;;;;366.30;91.40;;;;;;;;;;5048174;28;20424;-76
2021/07/12 06:04:31;;;;;;;358.43;90.10;;;;;;;;;;5056624;28;20757;-75
2021/07/12 06:06:57;;;;;;;378.40;93.10;;;;;;;;;;5052931;28;20408;-75
2021/07/12 06:09:39;;;;;;;406.93;98.93;;;;;;;;;;5046794;28;21015;-75
2021/07/12 06:12:05;;;;;;;380.73;96.27;;;;;;;;;;5036351;28;20964;-75
2021/07/12 06:14:31;;;;;;;418.93;101.10;;;;;;;;;;5051491;28;20436;-76
2021/07/12 06:16:57;;;;;;;408.10;100.80;;;;;;;;;;5049276;28;20410;-76
2021/07/12 06:19:23;;;;;;;404.37;100.97;;;;;;;;;;5046807;28;20416;-78
2021/07/12 06:21:49;;;;;;;406.13;102.70;;;;;;;;;;5051827;28;20427;-78
2021/07/12 06:24:15;;;;;;;391.27;99.30;;;;;;;;;;5050599;28;20413;-78
2021/07/12 06:26:41;;;;;;;390.80;102.43;;;;;;;;;;5048883;28;20406;-78
2021/07/12 06:29:08;;;;;;;378.13;96.17;;;;;;;;;;5034799;28;20423;-78
2021/07/12 06:31:34;;;;;;;368.07;96.27;;;;;;;;;;5031714;28;20482;-78
2021/07/12 06:34:00;;;;;;;365.10;100.00;;;;;;;;;;5031804;28;20434;-78
2021/07/12 06:36:30;;;;;;;359.17;97.07;;;;;;;;;;5050022;28;20410;-75
2021/07/12 06:38:56;;;;;;;384.27;100.77;;;;;;;;;;5068690;28;20434;-75
2021/07/12 06:41:22;;;;;;;365.47;100.43;;;;;;;;;;5046946;28;20408;-75
2021/07/12 06:43:49;;;;;;;348.60;96.77;;;;;;;;;;5048195;28;20415;-75
2021/07/12 06:46:15;;;;;;;316.03;92.40;;;;;;;;;;5041594;28;20389;-75
2021/07/12 06:48:41;;;;;;;331.97;98.20;;;;;;;;;;5051011;28;20403;-75
2021/07/12 06:51:08;;;;;;;300.47;89.77;;;;;;;;;;5051029;28;20426;-75
2021/07/12 06:53:35;;;;;;;308.63;95.73;;;;;;;;;;5050439;28;20608;-75
2021/07/12 06:56:01;;;;;;;343.73;105.27;;;;;;;;;;5043729;28;20793;-75
2021/07/12 06:58:32;;;;;;;300.57;92.13;;;;;;;;;;5045528;28;20432;-75
2021/07/12 07:00:58;;;;;;;318.77;95.93;;;;;;;;;;5037303;28;20483;-75
2021/07/12 07:03:24;;;;;;;327.13;100.53;;;;;;;;;;5050434;28;20404;-75
2021/07/12 07:05:50;;;;;;;301.03;94.60;;;;;;;;;;5051234;28;20420;-75
2021/07/12 07:08:16;;;;;;;353.67;104.63;;;;;;;;;;5045001;28;20654;-77
2021/07/12 07:10:42;;;;;;;308.27;96.43;;;;;;;;;;5048778;28;20485;-76
2021/07/12 07:13:08;;;;;;;276.77;92.63;;;;;;;;;;5046432;28;20438;-77
2021/07/12 07:15:35;;;;;;;295.30;94.40;;;;;;;;;;5045289;28;20408;-76
2021/07/12 07:18:01;;;;;;;317.27;99.73;;;;;;;;;;5052280;28;20400;-77
2021/07/12 07:20:27;;;;;;;322.30;96.83;;;;;;;;;;5049632;28;20453;-76
2021/07/12 07:22:53;;;;;;;284.67;94.40;;;;;;;;;;5045789;28;20765;-76
2021/07/12 07:25:19;;;;;;;315.83;97.17;;;;;;;;;;5053834;28;20413;-77
2021/07/12 07:27:45;;;;;;;299.80;102.13;;;;;;;;;;5043640;28;20430;-77
2021/07/12 07:30:12;;;;;;;290.83;94.80;;;;;;;;;;5045850;28;20488;-76
2021/07/12 07:32:38;;;;;;;270.07;95.47;;;;;;;;;;5055128;28;20444;-76
2021/07/12 07:35:05;;;;;;;336.20;103.53;;;;;;;;;;5054944;28;20376;-77
2021/07/12 07:37:31;;;;;;;296.97;98.93;;;;;;;;;;5055049;28;20733;-75
2021/07/12 07:39:57;;;;;;;350.20;107.83;;;;;;;;;;5054944;28;20371;-75
2021/07/12 07:42:23;;;;;;;294.90;98.20;;;;;;;;;;5054482;28;20467;-75
2021/07/12 07:44:49;;;;;;;256.90;89.27;;;;;;;;;;5054707;28;20420;-75
2021/07/12 07:47:15;;;;;;;272.17;93.80;;;;;;;;;;5053072;28;20844;-75
2021/07/12 07:49:41;;;;;;;277.73;93.90;;;;;;;;;;5054641;28;20484;-75
2021/07/12 07:52:08;;;;;;;250.30;89.87;;;;;;;;;;5054801;28;20465;-75
2021/07/12 07:54:34;;;;;;;173.23;73.17;;;;;;;;;;5054674;28;20733;-76
2021/07/12 07:57:00;;;;;;;277.83;97.90;;;;;;;;;;5052804;28;20428;-76
2021/07/12 07:59:26;;;;;;;271.97;93.27;;;;;;;;;;5054604;28;20397;-76
2021/07/12 08:01:52;;;;;;;281.93;91.97;;;;;;;;;;5054664;28;20467;-76
2021/07/12 08:04:18;;;;;;;296.63;97.27;;;;;;;;;;5068040;28;20410;-76
2021/07/12 08:06:44;;;;;;;332.47;104.27;;;;;;;;;;5074498;28;20400;-76
2021/07/12 08:09:10;;;;;;;335.00;99.77;;;;;;;;;;5062574;28;20427;-75
2021/07/12 08:11:36;;;;;;;346.43;105.63;;;;;;;;;;5054075;28;20448;-75
2021/07/12 08:14:02;;;;;;;358.70;108.30;;;;;;;;;;5054265;28;20401;-75
2021/07/12 08:16:28;;;;;;;377.97;116.03;;;;;;;;;;5053776;28;20915;-75
2021/07/12 08:18:54;;;;;;;354.50;107.20;;;;;;;;;;5054119;28;20459;-75
2021/07/12 08:21:20;;;;;;;370.33;111.47;;;;;;;;;;5054273;28;20379;-75
2021/07/12 08:23:46;;;;;;;354.50;106.17;;;;;;;;;;5054471;28;20381;-76
2021/07/12 08:26:13;;;;;;;348.87;106.40;;;;;;;;;;5053758;28;20430;-76
2021/07/12 08:28:39;;;;;;;355.43;105.83;;;;;;;;;;5053422;28;20407;-76
2021/07/12 08:31:06;;;;;;;437.93;117.10;;;;;;;;;;5053641;28;20401;-76
2021/07/12 08:33:32;;;;;;;452.43;121.93;;;;;;;;;;5054009;28;20464;-76
2021/07/12 08:35:58;;;;;;;436.00;115.80;;;;;;;;;;5053210;28;20456;-76
2021/07/12 08:38:24;;;;;;;441.47;119.80;;;;;;;;;;5053996;28;20697;-76
2021/07/12 08:40:53;;;;;;;461.73;124.47;;;22.80;99.90;;;;;;5052957;28;20381;-76
2021/07/12 08:43:19;;;;;;;678.83;189.30;;;;;;;;;;5053814;28;20916;-76
2021/07/12 08:45:45;;;;;;;569.97;142.20;;;;;;;;;;5053411;28;20402;-76
2021/07/12 08:48:11;;;;;;;603.13;159.73;;;;;;;;;;5053448;28;20456;-77
2021/07/12 08:50:37;;;;;;;529.57;138.77;;;;;;;;;;5053817;28;20914;-76
2021/07/12 08:53:03;;;;;;;502.50;137.97;;;;;;;;;;5053866;28;20461;-76
2021/07/12 08:55:29;;;;;;;610.13;158.37;;;;;;;;;;5053602;28;20384;-76
2021/07/12 08:58:00;;;;;;;645.57;170.27;;;;;;;;;;5051433;28;20816;-77
2021/07/12 09:00:45;;;;;;;641.07;179.37;;;;;;;;;;5053665;28;20405;-76
2021/07/12 09:03:18;;;;;;;589.60;160.47;;;;;;;;;;5053362;28;20407;-76
2021/07/12 09:06:21;;;;;;;600.53;162.20;;;24.00;99.90;;;;;;5053807;28;20395;-77
2021/07/12 09:08:54;;;;;;;624.47;160.23;;;24.20;99.90;;;;;;4989626;28;20429;-76
2021/07/12 09:11:29;;;;;;;1067.87;516.43;;;;;;;;;;4990270;28;20474;-76
2021/07/12 09:14:07;;;;;;;594.67;161.77;;;;;;;;;;4991699;28;20417;-76
2021/07/12 09:16:38;;;;;;;647.40;195.97;;;;;;;;;;4972290;28;20416;-77
2021/07/12 09:19:07;;;;;;;574.47;158.87;;;;;;;;;;4972003;28;20935;-76
2021/07/12 09:21:34;;;;;;;596.90;165.57;;;;;;;;;;4972112;28;20407;-76
2021/07/12 09:24:12;;;;;;;628.50;179.30;;;;;;;;;;4972479;28;20509;-76
2021/07/12 09:26:47;;;;;;;549.70;154.03;;;24.70;99.90;;;;;;4971949;28;20867;-77
2021/07/12 09:29:15;;;;;;;626.60;179.23;;;;;;;;;;4972004;28;20564;-78
2021/07/12 09:31:41;;;;;;;551.17;154.57;;;;;;;;;;4968554;28;20574;-77
2021/07/12 09:34:07;;;;;;;558.97;154.53;;;;;;;;;;4963166;28;20516;-77
2021/07/12 09:36:33;;;;;;;565.53;157.73;;;;;;;;;;4954077;28;20482;-77
2021/07/12 09:39:25;;;;;;;1044.07;565.40;;;24.90;99.90;;;;;;4973162;28;20494;-75
2021/07/12 09:41:53;;;;;;;643.27;216.33;;;25.10;99.90;;;;;;4971294;28;20480;-75
2021/07/12 09:44:20;;;;;;;645.13;194.20;;;;;;;;;;4994628;28;20454;-75
2021/07/12 09:46:46;;;;;;;620.47;181.37;;;;;;;;;;5026052;28;20410;-75
2021/07/12 09:49:15;;;;;;;618.33;178.13;;;25.50;99.90;;;;;;5032751;28;20604;-75
2021/07/12 09:51:41;;;;;;;616.70;177.80;;;25.60;99.90;;;;;;5024846;28;20478;-75
2021/07/12 09:54:36;;;;;;;609.37;170.87;;;25.60;99.90;;;;;;5021179;28;20903;-75
2021/07/12 09:57:05;;;;;;;914.93;375.53;;;;;;;;;;5012805;28;20947;-75
2021/07/12 09:59:32;;;;;;;585.13;172.63;;;;;;;;;;5026905;28;20425;-75
2021/07/12 10:01:58;;;;;;;679.03;232.50;;;;;;;;;;5012577;28;20399;-75
2021/07/12 10:04:25;;;;;;;592.43;164.10;;;;;;;;;;5029151;28;20416;-75
2021/07/12 10:06:52;;;;;;;629.10;187.60;;;;;;;;;;5027305;28;20427;-75
2021/07/12 10:09:22;;;;;;;668.90;205.97;;;;;;;;;;5026095;28;20444;-77
2021/07/12 10:11:49;;;;;;;616.17;177.83;;;26.10;99.90;;;;;;5028484;28;20977;-77
2021/07/12 10:14:15;;;;;;;607.80;173.83;;;;;;;;;;5032278;28;20426;-77
2021/07/12 10:16:41;;;;;;;612.07;177.80;;;;;;;;;;5032149;28;20376;-77
2021/07/12 10:19:07;;;;;;;670.47;224.77;;;;;;;;;;5031663;28;20802;-77
2021/07/12 10:21:41;;;;;;;610.07;170.27;;;26.30;99.90;;;;;;5032110;28;20910;-77
2021/07/12 10:24:07;;;;;;;746.93;269.43;;;26.40;99.90;;;;;;5029898;28;20409;-75
2021/07/12 10:26:42;;;;;;;586.03;169.07;;;;;;;;;;5031859;28;20410;-75
2021/07/12 10:29:14;;;;;;;626.77;190.87;;;27.10;99.90;;;;;;5029770;28;20392;-75
2021/07/12 10:31:55;;;;;;;666.60;219.13;;;;;;;;;;5012356;28;20472;-75
2021/07/12 10:34:31;;;;;;;662.47;220.80;;;;;;;;;;5014132;28;20957;-75
2021/07/12 10:37:09;;;;;;;625.10;197.37;;;;;;;;;;5028176;28;20437;-75
2021/07/12 10:39:54;;;;;;;653.57;225.87;;;;;;;;;;5028572;28;20502;-75
2021/07/12 10:42:51;;;;;;;697.43;244.30;;;27.90;99.90;;;;;;5031377;28;21044;-77
2021/07/12 10:45:24;;;;;;;622.80;190.13;;;;;;;;;;4955398;28;20436;-78
2021/07/12 10:47:58;;;;;;;668.60;226.10;;;28.10;99.90;;;;;;4971828;28;20400;-78
2021/07/12 10:50:39;;;;;;;638.80;211.10;;;;;;;;;;4970791;28;20434;-77
2021/07/12 10:53:14;;;;;;;622.47;193.40;;;;;;;;;;4967393;28;20581;-78
2021/07/12 10:58:44;;;;;;;632.80;196.00;;;;;;;;;;4972588;28;20421;-82
2021/07/12 11:01:15;;;;;;;633.97;201.37;;;;;;;;;;4964512;28;20704;-81
2021/07/12 11:03:51;;;;;;;652.77;217.20;;;;;;;;;;4956503;29;20419;-82
2021/07/12 11:06:52;;;;;;;620.20;202.17;;;;;;;;;;4967098;28;20430;-81
2021/07/12 11:10:00;;;;;;;609.77;184.50;;;29.00;99.90;;;;;;4974508;28;20432;-81
2021/07/12 11:12:27;;;;;;;614.27;198.40;;;;;;;;;;4975520;28;20403;-80
2021/07/12 11:15:24;;;;;;;604.97;191.57;;;29.30;99.90;;;;;;4975438;28;20438;-80
2021/07/12 11:18:02;;;;;;;601.67;190.13;;;;;;;;;;4956314;29;20414;-80
2021/07/12 11:20:44;;;;;;;608.47;196.97;;;28.90;99.90;;;;;;4972508;28;20545;-80
2021/07/12 11:26:34;;;;;;;627.53;200.00;;;;;;;;;;5016226;28;20438;-83
2021/07/12 11:29:19;;;;;;;624.07;195.27;;;27.90;99.90;;;;;;5016207;28;20516;-83
2021/07/12 11:31:45;;;;;;;623.13;201.40;;;;;;;;;;5016701;28;20935;-81
2021/07/12 11:34:17;;;;;;;620.37;190.73;;;27.80;99.90;;;;;;5021787;28;20411;-81
2021/07/12 11:37:18;;;;;;;637.43;209.33;;;27.90;99.90;;;;;;5021200;28;20512;-81
2021/07/12 11:39:57;;;;;;;623.50;196.23;;;;;;;;;;4984267;28;20442;-82
2021/07/12 11:42:42;;;;;;;613.10;186.47;;;28.50;99.90;;;;;;4989742;28;20531;-81
2021/07/12 11:45:27;;;;;;;611.13;186.90;;;;;;;;;;5004842;28;20431;-80
2021/07/12 11:48:09;;;;;;;610.07;185.60;;;;;;;;;;4985977;28;20398;-80
2021/07/12 11:50:36;;;;;;;633.13;198.97;;;;;;;;;;4975346;28;20395;-79
2021/07/12 11:53:15;;;;;;;615.40;198.97;;;;;;;;;;4990989;28;20432;-79
2021/07/12 11:55:45;;;;;;;616.87;196.37;;;;;;;;;;4985277;28;20511;-79
2021/07/12 11:58:11;;;;;;;602.57;187.83;;;;;;;;;;4983281;28;20430;-79
2021/07/12 12:00:38;;;;;;;623.10;200.83;;;;;;;;;;4991279;28;21024;-80
2021/07/12 12:03:11;;;;;;;609.73;196.97;;;;;;;;;;4989642;28;20457;-79
2021/07/12 12:05:39;;;;;;;609.00;196.90;;;;;;;;;;4987780;28;20467;-75
2021/07/12 12:08:06;;;;;;;605.47;188.87;;;29.30;99.90;;;;;;4991784;28;20434;-76
2021/07/12 12:10:40;;;;;;;604.20;194.80;;;;;;;;;;4983633;28;20648;-75
2021/07/12 12:13:15;;;;;;;610.37;197.33;;;;;;;;;;4981329;28;20528;-75
2021/07/12 12:15:42;;;;;;;623.97;206.30;;;;;;;;;;5006777;28;20393;-75
2021/07/12 12:18:10;;;;;;;606.23;191.87;;;;;;;;;;5032391;28;20397;-75
2021/07/12 12:20:36;;;;;;;604.20;204.40;;;;;;;;;;5023176;28;20374;-75
2021/07/12 12:23:05;;;;;;;599.57;189.20;;;;;;;;;;5033821;28;20420;-75
2021/07/12 12:25:33;;;;;;;628.63;208.30;;;;;;;;;;5034408;28;20392;-75
2021/07/12 12:27:59;;;;;;;630.20;209.50;;;;;;;;;;5034091;28;20905;-75
2021/07/12 12:30:26;;;;;;;612.33;204.60;;;;;;;;;;5034559;28;20789;-76
2021/07/12 12:32:54;;;;;;;623.50;211.10;;;30.00;99.90;;;;;;5031708;28;20830;-78
2021/07/12 12:35:22;;;;;;;631.47;218.17;;;30.30;99.90;;;;;;5034209;28;20382;-77
2021/07/12 12:37:49;;;;;;;639.23;237.30;;;;;;;;;;5024401;28;20545;-77
2021/07/12 12:40:18;;;;;;;623.50;205.30;;;;;;;;;;5032567;28;20437;-77
2021/07/12 12:42:45;;;;;;;601.67;204.00;;;;;;;;;;5024703;28;20487;-77
2021/07/12 12:45:11;;;;;;;634.27;219.40;;;;;;;;;;5028836;28;20891;-78
2021/07/12 12:47:37;;;;;;;611.13;214.63;;;;;;;;;;5030503;28;20405;-77
2021/07/12 12:50:17;;;;;;;597.47;201.50;;;30.60;99.90;;;;;;5033594;28;20447;-77
2021/07/12 12:52:43;;;;;;;520.97;177.63;;;;;;;;;;5032635;28;20904;-77
2021/07/12 12:55:13;;;;;;;455.10;172.47;;;;;;;;;;5047110;28;20437;-77
2021/07/12 12:57:41;;;;;;;461.03;167.40;;;;;;;;;;5033583;28;20525;-77
2021/07/12 13:00:09;;;;;;;424.97;161.53;;;;;;;;;;5033398;28;20822;-77
2021/07/12 13:02:46;;;;;;;424.17;153.20;;;31.20;99.90;;;;;;5032185;28;20462;-76
2021/07/12 13:05:19;;;;;;;471.17;167.77;;;;;;;;;;5033323;28;20785;-76
2021/07/12 13:07:49;;;;;;;454.83;160.87;;;31.10;99.90;;;;;;5033227;28;20394;-78
2021/07/12 13:10:25;;;;;;;465.03;166.77;;;31.20;99.90;;;;;;5045912;28;20507;-74
2021/07/12 13:12:57;;;;;;;491.07;171.03;;;31.20;99.90;;;;;;5025781;28;20791;-74
2021/07/12 13:15:26;;;;;;;461.20;171.07;;;31.20;99.90;;;;;;5032215;28;20395;-74
2021/07/12 13:17:54;;;;;;;442.37;157.90;;;31.20;99.90;;;;;;5032715;28;20417;-74
2021/07/12 13:20:24;;;;;;;466.20;167.43;;;;;;;;;;5032909;28;20395;-74
2021/07/12 13:22:52;;;;;;;453.00;159.47;;;;;;;;;;5020287;28;20470;-74
2021/07/12 13:25:45;;;;;;;432.60;158.43;;;;;;;;;;5029051;28;20913;-76
2021/07/12 13:28:14;;;;;;;435.77;154.17;;;31.80;99.90;;;;;;5019573;28;20500;-75
2021/07/12 13:30:44;;;;;;;439.63;158.87;;;;;;;;;;5013479;28;20424;-75
2021/07/12 13:33:13;;;;;;;436.73;157.40;;;31.90;99.90;;;;;;5024635;28;20434;-75
2021/07/12 13:35:40;;;;;;;444.10;164.77;;;;;;;;;;5032784;28;20391;-75
2021/07/12 13:38:10;;;;;;;389.73;147.13;;;;;;;;;;5032497;28;20424;-75
2021/07/12 13:40:37;;;;;;;377.23;148.70;;;;;;;;;;5032791;28;20788;-77
2021/07/12 13:43:04;;;;;;;360.40;142.67;;;;;;;;;;5030602;28;20459;-77
2021/07/12 13:45:31;;;;;;;338.63;136.87;;;;;;;;;;5013719;28;20392;-77
2021/07/12 13:47:57;;;;;;;315.73;131.93;;;;;;;;;;5013205;28;20392;-77
2021/07/12 13:50:27;;;;;;;291.93;126.97;;;;;;;;;;5013821;28;20450;-76
2021/07/12 13:52:57;;;;;;;323.53;137.43;;;;;;;;;;5014113;28;20417;-76
2021/07/12 13:55:24;;;;;;;304.30;133.47;;;30.50;99.90;;;;;;5042919;28;20443;-77
2021/07/12 13:57:51;;;;;;;318.97;131.43;;;;;;;;;;5021899;28;20468;-77
2021/07/12 14:00:18;;;;;;;310.00;134.37;;;;;;;;;;5033546;28;20402;-77
2021/07/12 14:02:45;;;;;;;295.67;133.93;;;;;;;;;;5031827;28;20487;-77